createdAt,value
2023-03-12T00:01:16.666Z,99503.31
2023-03-12T00:03:46.367Z,99439.09
2023-03-12T00:06:14.832Z,99508.69
2023-03-12T00:08:44.304Z,99510.34
2023-03-12T00:11:16.027Z,99505.31
2023-03-12T00:13:45.307Z,99515.69
2023-03-12T00:16:15.847Z,99423.13
2023-03-12T00:18:44.750Z,99452.31
2023-03-12T00:21:12.869Z,99521.03
2023-03-12T00:23:41.290Z,99514.03
2023-03-12T00:26:12.050Z,99527.25
2023-03-12T00:28:42.633Z,99531.75
2023-03-12T00:31:19.226Z,99525.56
2023-03-12T00:33:49.780Z,99530.09
2023-03-12T00:36:18.398Z,99527.41
2023-03-12T00:38:46.899Z,99527.88
2023-03-12T00:41:15.382Z,99539.78
2023-03-12T00:43:44.951Z,99545.13
2023-03-12T00:46:13.175Z,99471.69
2023-03-12T00:48:42.050Z,99537.94
2023-03-12T00:51:10.387Z,99515.28
2023-03-12T00:53:39.189Z,99451.06
2023-03-12T00:56:08.161Z,99425.81
2023-03-12T00:58:36.465Z,99542.44
2023-03-12T01:01:06.719Z,99542.44
2023-03-12T01:03:34.972Z,99542.75
2023-03-12T01:06:03.153Z,99457.19
2023-03-12T01:08:31.808Z,99546.13
2023-03-12T01:11:00.130Z,99555.81
2023-03-12T01:13:28.756Z,99557.69
2023-03-12T01:15:57.441Z,99552.34
2023-03-12T01:18:27.452Z,99558.50
2023-03-12T01:20:55.698Z,99574.56
2023-03-12T01:23:23.829Z,99543.41
2023-03-12T01:25:55.585Z,99540.34
2023-03-12T01:28:25.069Z,99565.56
2023-03-12T01:30:53.284Z,99579.91
2023-03-12T01:33:23.055Z,99579.09
2023-03-12T01:35:52.963Z,99585.56
2023-03-12T01:38:21.372Z,99515.09
2023-03-12T01:40:49.608Z,99595.44
2023-03-12T01:43:30.940Z,99519.06
2023-03-12T01:46:07.724Z,99523.06
2023-03-12T01:48:40.943Z,99614.03
2023-03-12T01:51:13.937Z,99619.38
2023-03-12T01:53:44.716Z,99619.38
2023-03-12T01:56:14.314Z,99547.81
2023-03-12T01:58:46.598Z,99625.53
2023-03-12T02:01:19.288Z,99625.53
2023-03-12T02:03:50.082Z,99541.09
2023-03-12T02:06:22.162Z,99627.03
2023-03-12T02:08:51.785Z,99640.78
2023-03-12T02:11:19.957Z,99635.44
2023-03-12T02:13:48.155Z,99528.00
2023-03-12T02:16:16.761Z,99630.06
2023-03-12T02:18:46.245Z,99634.88
2023-03-12T02:21:20.854Z,99632.38
2023-03-12T02:23:58.287Z,99656.81
2023-03-12T02:26:30.574Z,99657.63
2023-03-12T02:29:01.465Z,99657.63
2023-03-12T02:31:36.620Z,99656.81
2023-03-12T02:34:04.888Z,99662.03
2023-03-12T02:36:33.003Z,99493.56
2023-03-12T02:39:01.293Z,99663.84
2023-03-12T02:41:33.805Z,99593.59
2023-03-12T02:44:05.873Z,99668.34
2023-03-12T02:46:37.857Z,99684.41
2023-03-12T02:49:06.471Z,99675.56
2023-03-12T02:51:35.009Z,99677.38
2023-03-12T02:54:03.196Z,99687.22
2023-03-12T02:56:33.197Z,99525.19
2023-03-12T02:59:04.246Z,99687.53
2023-03-12T03:01:34.345Z,99695.94
2023-03-12T03:04:03.029Z,99698.63
2023-03-12T03:06:32.560Z,99694.28
2023-03-12T03:09:01.161Z,99708.94
2023-03-12T03:11:29.611Z,99703.97
2023-03-12T03:13:59.150Z,99706.66
2023-03-12T03:16:27.835Z,99712.00
2023-03-12T03:18:56.169Z,99644.78
2023-03-12T03:21:24.338Z,99642.03
2023-03-12T03:23:53.572Z,99722.69
2023-03-12T03:26:24.142Z,99723.00
2023-03-12T03:28:52.716Z,99716.31
2023-03-12T03:31:22.949Z,99742.44
2023-03-12T03:33:52.492Z,99749.44
2023-03-12T03:36:20.841Z,99754.81
2023-03-12T03:38:50.607Z,99749.44
2023-03-12T03:41:19.416Z,99675.13
2023-03-12T03:43:47.978Z,99761.00
2023-03-12T03:46:17.034Z,99756.78
2023-03-12T03:48:46.934Z,99767.19
2023-03-12T03:51:15.312Z,99760.16
2023-03-12T03:53:43.569Z,99685.81
2023-03-12T03:56:13.894Z,99765.50
2023-03-12T03:58:42.152Z,99774.53
2023-03-12T04:01:10.260Z,99664.66
2023-03-12T04:03:38.603Z,99779.88
2023-03-12T04:06:09.024Z,99769.19
2023-03-12T04:08:37.983Z,99782.41
2023-03-12T04:11:10.151Z,99769.19
2023-03-12T04:13:38.652Z,99776.22
2023-03-12T04:16:07.585Z,99711.25
2023-03-12T04:18:36.389Z,99784.22
2023-03-12T04:21:06.194Z,99704.13
2023-03-12T04:23:35.922Z,99780.19
2023-03-12T04:26:04.754Z,99792.25
2023-03-12T04:28:33.490Z,99627.13
2023-03-12T04:31:03.519Z,99801.28
2023-03-12T04:33:34.541Z,99797.59
2023-03-12T04:36:03.049Z,99802.09
2023-03-12T04:38:31.596Z,99790.91
2023-03-12T04:41:02.867Z,99718.59
2023-03-12T04:43:31.899Z,99802.25
2023-03-12T04:46:00.969Z,99803.28
2023-03-12T04:48:29.585Z,99804.94
2023-03-12T04:50:57.828Z,99672.53
2023-03-12T04:53:26.549Z,99817.34
2023-03-12T04:55:55.058Z,99728.75
2023-03-12T04:58:24.826Z,99808.63
2023-03-12T05:00:53.133Z,99811.28
2023-03-12T05:03:21.332Z,99814.66
2023-03-12T05:05:49.745Z,99821.00
2023-03-12T05:08:17.896Z,99740.59
2023-03-12T05:10:46.650Z,99831.69
2023-03-12T05:13:16.937Z,99831.69
2023-03-12T05:15:47.701Z,99826.34
2023-03-12T05:18:16.171Z,99733.84
2023-03-12T05:20:44.389Z,99822.69
2023-03-12T05:23:12.713Z,99737.81
2023-03-12T05:25:41.726Z,99842.41
2023-03-12T05:28:09.960Z,99839.06
2023-03-12T05:30:38.138Z,99847.75
2023-03-12T05:33:07.738Z,99854.81
2023-03-12T05:35:35.972Z,99848.03
2023-03-12T05:38:04.440Z,99860.16
2023-03-12T05:40:32.692Z,99878.19
2023-03-12T05:43:00.807Z,99869.16
2023-03-12T05:45:29.088Z,99868.34
2023-03-12T05:47:58.860Z,99876.50
2023-03-12T05:50:28.529Z,99872.81
2023-03-12T05:52:56.780Z,99809.19
2023-03-12T05:55:24.978Z,99874.50
2023-03-12T05:57:53.586Z,99872.81
2023-03-12T06:00:22.624Z,99870.84
2023-03-12T06:02:51.909Z,99868.19
2023-03-12T06:05:20.197Z,99870.31
2023-03-12T06:07:50.104Z,99870.84
2023-03-12T06:10:19.454Z,99710.22
2023-03-12T06:12:47.724Z,99879.84
2023-03-12T06:15:15.896Z,99799.09
2023-03-12T06:17:44.179Z,99807.78
2023-03-12T06:20:13.165Z,99711.66
2023-03-12T06:22:41.530Z,99898.88
2023-03-12T06:25:11.928Z,99791.81
2023-03-12T06:27:41.667Z,99883.53
2023-03-12T06:30:10.982Z,99890.56
2023-03-12T06:32:39.164Z,99885.19
2023-03-12T06:35:07.986Z,99890.56
2023-03-12T06:37:36.165Z,99884.38
2023-03-12T06:40:10.031Z,99886.91
2023-03-12T06:42:39.802Z,99892.25
2023-03-12T06:45:09.049Z,99898.56
2023-03-12T06:47:37.474Z,99813.72
2023-03-12T06:50:06.347Z,99895.09
2023-03-12T06:52:34.620Z,99903.94
2023-03-12T06:55:02.836Z,99901.25
2023-03-12T06:57:30.980Z,99903.94
2023-03-12T07:00:00.589Z,99901.56
2023-03-12T07:02:28.796Z,99901.56
2023-03-12T07:04:56.999Z,99818.56
2023-03-12T07:07:25.512Z,99828.50
2023-03-12T07:09:53.740Z,99901.56
2023-03-12T07:12:21.944Z,99902.97
2023-03-12T07:14:50.220Z,99917.16
2023-03-12T07:17:22.344Z,99763.34
2023-03-12T07:19:50.493Z,99919.84
2023-03-12T07:22:18.651Z,99919.00
2023-03-12T07:24:46.784Z,99922.66
2023-03-12T07:27:15.062Z,99928.84
2023-03-12T07:29:43.354Z,99917.59
2023-03-12T07:32:11.738Z,99925.34
2023-03-12T07:34:41.383Z,99920.97
2023-03-12T07:37:10.067Z,99924.38
2023-03-12T07:39:38.272Z,99859.28
2023-03-12T07:42:06.786Z,99931.38
2023-03-12T07:44:36.877Z,99850.56
2023-03-12T07:47:22.290Z,99924.38
2023-03-12T07:49:52.688Z,99938.56
2023-03-12T07:52:21.238Z,99935.06
2023-03-12T07:54:49.503Z,99940.41
2023-03-12T07:57:18.227Z,99932.38
2023-03-12T07:59:48.220Z,99940.41
2023-03-12T08:02:16.494Z,99849.19
2023-03-12T08:04:44.786Z,99939.56
2023-03-12T08:07:15.128Z,99857.91
2023-03-12T08:09:43.335Z,99944.91
2023-03-12T08:12:11.713Z,99948.59
2023-03-12T08:14:40.197Z,99855.13
2023-03-12T08:17:08.455Z,99955.47
2023-03-12T08:19:36.724Z,99949.41
2023-03-12T08:22:07.444Z,99871.94
2023-03-12T08:24:37.324Z,99866.28
2023-03-12T08:27:05.533Z,99873.34
2023-03-12T08:29:34.108Z,99952.78
2023-03-12T08:32:05.278Z,99949.13
2023-03-12T08:34:34.113Z,99943.91
2023-03-12T08:37:03.412Z,99804.53
2023-03-12T08:39:31.776Z,99949.41
2023-03-12T08:42:01.334Z,99927.78
2023-03-12T08:44:29.695Z,99952.78
2023-03-12T08:46:57.797Z,99942.84
2023-03-12T08:49:26.214Z,99951.13
2023-03-12T08:51:54.402Z,99796.53
2023-03-12T08:54:22.796Z,99952.78
2023-03-12T08:56:52.236Z,99963.50
2023-03-12T08:59:23.566Z,99959.81
2023-03-12T09:01:51.966Z,99969.69
2023-03-12T09:04:20.366Z,99881.56
2023-03-12T09:06:48.679Z,99967.84
2023-03-12T09:09:16.799Z,99876.91
2023-03-12T09:11:45.516Z,99853.78
2023-03-12T09:15:01.374Z,99970.50
2023-03-12T09:17:03.750Z,99973.19
2023-03-12T09:19:31.921Z,99965.16
2023-03-12T09:22:00.182Z,99974.19
2023-03-12T09:24:28.355Z,99962.41
2023-03-12T09:26:57.039Z,99963.78
2023-03-12T09:29:25.415Z,99970.50
2023-03-12T09:31:53.565Z,99966.88
2023-03-12T09:34:23.341Z,99965.16
2023-03-12T09:36:52.304Z,99968.00
2023-03-12T09:39:21.049Z,99885.22
2023-03-12T09:41:50.167Z,99958.13
2023-03-12T09:44:25.349Z,99948.03
2023-03-12T09:46:55.991Z,99963.50
2023-03-12T09:49:35.664Z,99959.16
2023-03-12T09:52:08.062Z,99958.13
2023-03-12T09:54:42.226Z,99963.50
2023-03-12T09:57:14.244Z,99959.81
2023-03-12T09:59:42.504Z,99949.41
2023-03-12T10:02:43.809Z,99958.13
2023-03-12T10:05:20.339Z,99955.63
2023-03-12T10:07:53.641Z,99963.50
2023-03-12T10:10:31.349Z,99866.50
2023-03-12T10:13:18.346Z,99866.81
2023-03-12T10:15:57.860Z,99877.00
2023-03-12T10:18:39.914Z,99945.75
2023-03-12T10:21:21.388Z,99801.16
2023-03-12T10:24:08.847Z,99951.13
2023-03-12T10:26:40.791Z,99954.25
2023-03-12T10:29:17.395Z,99964.50
2023-03-12T10:31:52.808Z,99805.50
2023-03-12T10:34:26.911Z,99808.31
2023-03-12T10:37:01.395Z,99881.25
2023-03-12T10:39:29.609Z,99973.34
2023-03-12T10:42:01.392Z,99986.56
2023-03-12T10:44:30.780Z,99997.28
2023-03-12T10:47:27.220Z,99981.50
2023-03-12T10:49:55.592Z,99986.56
2023-03-12T10:52:25.380Z,99981.50
2023-03-12T10:54:54.668Z,99898.69
2023-03-12T10:57:23.906Z,99984.34
2023-03-12T10:59:52.210Z,99973.38
2023-03-12T11:02:41.209Z,99984.91
2023-03-12T11:05:22.892Z,99995.59
2023-03-12T11:07:53.161Z,99998.28
2023-03-12T11:10:24.811Z,99994.59
2023-03-12T11:12:59.757Z,99997.28
2023-03-12T11:15:30.903Z,99985.75
2023-03-12T11:18:32.315Z,99998.97
2023-03-12T11:21:15.245Z,99982.38
2023-03-12T11:23:48.470Z,99997.28
2023-03-12T11:26:20.753Z,99983.53
2023-03-12T11:28:51.051Z,99906.63
2023-03-12T11:31:25.533Z,99995.59
2023-03-12T11:33:55.887Z,99990.25
2023-03-12T11:36:35.921Z,99927.13
2023-03-12T11:39:17.040Z,100000.94
2023-03-12T11:41:58.044Z,99923.72
2023-03-12T11:44:29.354Z,100006.31
2023-03-12T11:47:15.026Z,100000.94
2023-03-12T11:49:58.547Z,99991.25
2023-03-12T11:52:38.561Z,99997.56
2023-03-12T11:55:19.123Z,99978.69
2023-03-12T11:57:59.918Z,99974.50
2023-03-12T12:00:36.646Z,99906.41
2023-03-12T12:03:47.925Z,99972.53
2023-03-12T12:06:24.456Z,99894.31
2023-03-12T12:09:06.313Z,99966.16
2023-03-12T12:11:46.505Z,99959.00
2023-03-12T12:14:24.511Z,99935.38
2023-03-12T12:17:11.314Z,99871.13
2023-03-12T12:20:01.217Z,99936.72
2023-03-12T12:22:37.692Z,99950.13
2023-03-12T12:25:34.857Z,99766.44
2023-03-12T12:28:27.575Z,99758.00
2023-03-12T12:31:09.332Z,99936.72
2023-03-12T12:33:54.624Z,99928.00
2023-03-12T12:36:24.341Z,99925.19
2023-03-12T12:38:57.590Z,99924.38
2023-03-12T12:41:27.405Z,99924.38
2023-03-12T12:44:02.339Z,99929.72
2023-03-12T12:46:35.153Z,99938.41
2023-03-12T12:49:10.098Z,99931.38
2023-03-12T12:51:42.985Z,99848.59
2023-03-12T12:54:19.514Z,99925.03
2023-03-12T12:56:52.271Z,99925.19
2023-03-12T12:59:34.378Z,99933.06
2023-03-12T13:02:06.334Z,99942.09
2023-03-12T13:04:37.388Z,99935.06
2023-03-12T13:07:34.356Z,99927.72
2023-03-12T13:10:08.147Z,99850.25
2023-03-12T13:12:48.892Z,99928.72
2023-03-12T13:15:40.802Z,99921.13
2023-03-12T13:18:19.652Z,99836.81
2023-03-12T13:21:02.255Z,99920.69
2023-03-12T13:23:40.509Z,99926.03
2023-03-12T13:26:18.798Z,99915.34
2023-03-12T13:29:15.210Z,99759.44
2023-03-12T13:31:49.674Z,99915.34
2023-03-12T13:34:46.529Z,99920.97
2023-03-12T13:37:47.531Z,99929.56
2023-03-12T13:40:53.255Z,99926.88
2023-03-12T13:43:41.966Z,99846.81
2023-03-12T13:46:55.195Z,99936.72
2023-03-12T13:49:26.328Z,99848.09
2023-03-12T13:52:21.065Z,99935.06
2023-03-12T13:54:57.586Z,99763.63
2023-03-12T13:57:32.740Z,99934.91
2023-03-12T14:00:01.437Z,99926.34
2023-03-12T14:02:33.913Z,99925.78
2023-03-12T14:05:09.653Z,99847.50
2023-03-12T14:07:58.951Z,99879.19
2023-03-12T14:10:37.984Z,99919.69
2023-03-12T14:13:18.155Z,99922.34
2023-03-12T14:15:54.459Z,99917.84
2023-03-12T14:18:26.538Z,99841.31
2023-03-12T14:21:00.848Z,99918.72
2023-03-12T14:23:34.900Z,99917.00
2023-03-12T14:26:06.738Z,99910.84
2023-03-12T14:28:41.874Z,99903.63
2023-03-12T14:31:14.082Z,99813.13
2023-03-12T14:33:52.465Z,99902.66
2023-03-12T14:36:26.205Z,99877.47
2023-03-12T14:39:02.303Z,99891.94
2023-03-12T14:41:35.958Z,99892.78
2023-03-12T14:44:07.588Z,99897.31
2023-03-12T14:46:36.037Z,99733.25
2023-03-12T14:49:04.336Z,99817.19
2023-03-12T14:51:37.976Z,99893.63
2023-03-12T14:54:06.311Z,99723.16
2023-03-12T14:56:36.121Z,99815.13
2023-03-12T14:59:23.017Z,99888.28
2023-03-12T15:01:51.489Z,99885.59
2023-03-12T15:04:22.847Z,99853.44
2023-03-12T15:06:55.174Z,99713.03
2023-03-12T15:09:27.115Z,99796.47
2023-03-12T15:11:57.975Z,99791.13
2023-03-12T15:14:28.580Z,99857.84
2023-03-12T15:17:00.341Z,99860.50
2023-03-12T15:19:34.172Z,99867.88
2023-03-12T15:22:05.529Z,99851.44
2023-03-12T15:24:39.513Z,99850.81
2023-03-12T15:27:21.515Z,99847.13
2023-03-12T15:29:49.644Z,99849.81
2023-03-12T15:32:20.975Z,99853.50
2023-03-12T15:34:49.433Z,99850.81
2023-03-12T15:37:32.682Z,99777.31
2023-03-12T15:40:06.310Z,99761.66
2023-03-12T15:42:41.262Z,99844.47
2023-03-12T15:45:20.294Z,99840.13
2023-03-12T15:47:49.498Z,99815.28
2023-03-12T15:50:23.595Z,99834.75
2023-03-12T15:53:03.628Z,99831.09
2023-03-12T15:55:33.245Z,99832.09
2023-03-12T15:58:01.957Z,99825.88
2023-03-12T16:00:31.850Z,99728.19
2023-03-12T16:03:04.049Z,99820.38
2023-03-12T16:05:34.584Z,99804.94
2023-03-12T16:08:15.752Z,99822.38
2023-03-12T16:10:44.024Z,99824.06
2023-03-12T16:13:16.380Z,99818.72
2023-03-12T16:15:47.375Z,99691.31
2023-03-12T16:18:17.721Z,99805.34
2023-03-12T16:20:46.672Z,99809.00
2023-03-12T16:23:16.920Z,99790.59
2023-03-12T16:25:46.797Z,99813.34
2023-03-12T16:28:18.047Z,99808.00
2023-03-12T16:30:46.530Z,99813.34
2023-03-12T16:33:16.754Z,99828.56
2023-03-12T16:35:45.420Z,99811.69
2023-03-12T16:38:15.391Z,99691.97
2023-03-12T16:40:46.433Z,99813.34
2023-03-12T16:43:18.962Z,99808.00
2023-03-12T16:45:48.541Z,99799.97
2023-03-12T16:48:19.371Z,99805.34
2023-03-12T16:50:50.711Z,99822.25
2023-03-12T16:53:21.029Z,99802.66
2023-03-12T16:55:52.080Z,99788.59
2023-03-12T16:58:22.710Z,99791.94
2023-03-12T17:00:52.657Z,99804.31
2023-03-12T17:03:27.405Z,99801.06
2023-03-12T17:05:55.720Z,99806.34
2023-03-12T17:08:25.839Z,99799.97
2023-03-12T17:10:54.278Z,99802.66
2023-03-12T17:13:24.731Z,99795.63
2023-03-12T17:15:53.279Z,99798.16
2023-03-12T17:18:22.171Z,99769.22
2023-03-12T17:20:52.049Z,99637.94
2023-03-12T17:23:20.672Z,99791.94
2023-03-12T17:25:50.245Z,99793.63
2023-03-12T17:28:18.792Z,99786.59
2023-03-12T17:30:47.560Z,99773.44
2023-03-12T17:33:17.661Z,99705.59
2023-03-12T17:35:46.242Z,99776.91
2023-03-12T17:38:15.394Z,99643.97
2023-03-12T17:40:45.087Z,99777.56
2023-03-12T17:43:15.324Z,99769.19
2023-03-12T17:45:43.432Z,99779.28
2023-03-12T17:48:12.233Z,99772.38
2023-03-12T17:50:40.578Z,99589.44
2023-03-12T17:53:08.829Z,99756.16
2023-03-12T17:55:38.114Z,99760.53
2023-03-12T17:58:07.359Z,99763.22
2023-03-12T18:00:37.130Z,99755.19
2023-03-12T18:03:06.414Z,99751.66
2023-03-12T18:05:34.713Z,99757.88
2023-03-12T18:08:02.945Z,99738.06
2023-03-12T18:10:32.314Z,99740.13
2023-03-12T18:13:00.581Z,99736.78
2023-03-12T18:15:28.774Z,99659.47
2023-03-12T18:17:58.963Z,99742.78
2023-03-12T18:20:37.747Z,99745.78
2023-03-12T18:23:07.385Z,99666.50
2023-03-12T18:25:35.703Z,99738.44
2023-03-12T18:28:04.881Z,99616.84
2023-03-12T18:30:33.027Z,99711.69
2023-03-12T18:33:03.314Z,99694.91
2023-03-12T18:35:31.991Z,99687.03
2023-03-12T18:38:02.485Z,99701.00
2023-03-12T18:40:32.987Z,99691.13
2023-03-12T18:43:01.932Z,99547.84
2023-03-12T18:45:30.746Z,99674.22
2023-03-12T18:47:59.344Z,99595.00
2023-03-12T18:50:29.213Z,99668.88
2023-03-12T18:52:57.668Z,99668.88
2023-03-12T18:55:25.976Z,99668.88
2023-03-12T18:57:54.148Z,99650.94
2023-03-12T19:00:22.362Z,99660.84
2023-03-12T19:02:50.495Z,99656.81
2023-03-12T19:05:18.707Z,99674.84
2023-03-12T19:07:48.237Z,99642.00
2023-03-12T19:10:16.859Z,99655.28
2023-03-12T19:12:52.730Z,99513.75
2023-03-12T19:15:22.664Z,99635.75
2023-03-12T19:17:50.966Z,99545.28
2023-03-12T19:20:19.840Z,99623.03
2023-03-12T19:22:49.484Z,99614.19
2023-03-12T19:25:17.749Z,99533.44
2023-03-12T19:27:45.910Z,99604.13
2023-03-12T19:30:15.159Z,99577.19
2023-03-12T19:32:48.649Z,99477.38
2023-03-12T19:35:17.156Z,99588.94
2023-03-12T19:37:45.311Z,99590.59
2023-03-12T19:40:15.183Z,99579.19
2023-03-12T19:42:43.899Z,99510.06
2023-03-12T19:45:13.974Z,99579.91
2023-03-12T19:47:42.129Z,99549.34
2023-03-12T19:50:12.559Z,99549.81
2023-03-12T19:52:40.673Z,99541.09
2023-03-12T19:55:11.140Z,99549.50
2023-03-12T19:57:41.683Z,99544.97
2023-03-12T20:00:12.442Z,99554.84
2023-03-12T20:02:40.804Z,99489.34
2023-03-12T20:05:10.350Z,99564.69
2023-03-12T20:07:38.455Z,99551.22
2023-03-12T20:10:10.012Z,99549.88
2023-03-12T20:12:38.424Z,99550.25
2023-03-12T20:15:09.118Z,99548.22
2023-03-12T20:17:37.247Z,99542.22
2023-03-12T20:20:07.220Z,99389.34
2023-03-12T20:22:36.352Z,99526.50
2023-03-12T20:25:07.225Z,99523.13
2023-03-12T20:27:35.410Z,99511.72
2023-03-12T20:30:04.252Z,99497.00
2023-03-12T20:32:33.830Z,99490.66
2023-03-12T20:35:01.954Z,99484.66
2023-03-12T20:37:30.029Z,99490.81
2023-03-12T20:39:58.070Z,99491.81
2023-03-12T20:42:26.244Z,99488.31
2023-03-12T20:44:54.324Z,99332.78
2023-03-12T20:47:22.395Z,99348.72
2023-03-12T20:49:51.878Z,99497.34
2023-03-12T20:52:20.117Z,99489.31
2023-03-12T20:54:48.246Z,99488.31
2023-03-12T20:57:16.602Z,99486.63
2023-03-12T20:59:44.784Z,99488.31
2023-03-12T21:02:14.948Z,99481.28
2023-03-12T21:04:43.171Z,99475.94
2023-03-12T21:07:12.905Z,99483.97
2023-03-12T21:09:41.032Z,99486.63
2023-03-12T21:12:09.573Z,99485.63
2023-03-12T21:14:39.922Z,99471.44
2023-03-12T21:17:13.236Z,99475.94
2023-03-12T21:19:42.084Z,99359.97
2023-03-12T21:22:10.607Z,99452.88
2023-03-12T21:24:40.309Z,99435.97
2023-03-12T21:27:11.494Z,99357.22
2023-03-12T21:29:39.635Z,99421.09
2023-03-12T21:32:07.875Z,99412.72
2023-03-12T21:34:36.855Z,99414.88
2023-03-12T21:37:05.040Z,99319.59
2023-03-12T21:39:33.276Z,99397.66
2023-03-12T21:42:02.873Z,99402.03
2023-03-12T21:44:31.070Z,99410.06
2023-03-12T21:46:59.366Z,99330.66
2023-03-12T21:49:27.533Z,99378.78
2023-03-12T21:51:55.745Z,99381.63
2023-03-12T21:54:23.981Z,99353.00
2023-03-12T21:56:52.102Z,99357.53
2023-03-12T21:59:21.608Z,99354.84
2023-03-12T22:01:49.785Z,99356.56
2023-03-12T22:04:18.032Z,99340.31
2023-03-12T22:06:46.159Z,99333.47
2023-03-12T22:09:14.292Z,99244.75
2023-03-12T22:11:42.569Z,99331.47
2023-03-12T22:14:11.204Z,99201.97
2023-03-12T22:16:40.772Z,99293.31
2023-03-12T22:19:09.359Z,99285.31
2023-03-12T22:21:37.464Z,99243.47
2023-03-12T22:24:06.216Z,99234.09
2023-03-12T22:26:34.309Z,99285.31
2023-03-12T22:29:02.777Z,99294.19
2023-03-12T22:31:31.578Z,99207.34
2023-03-12T22:34:01.183Z,99295.19
2023-03-12T22:36:29.320Z,99303.03
2023-03-12T22:38:57.766Z,99309.38
2023-03-12T22:41:27.543Z,99305.88
2023-03-12T22:43:57.058Z,99300.38
2023-03-12T22:46:27.612Z,99279.94
2023-03-12T22:48:57.889Z,99274.59
2023-03-12T22:51:28.379Z,99280.81
2023-03-12T22:53:56.773Z,99191.31
2023-03-12T22:56:24.968Z,99256.88
2023-03-12T22:58:53.242Z,99253.88
2023-03-12T23:01:23.095Z,99229.81
2023-03-12T23:03:52.301Z,99074.19
2023-03-12T23:06:22.293Z,99119.81
2023-03-12T23:08:52.481Z,99219.09
2023-03-12T23:11:21.131Z,99221.09
2023-03-12T23:13:49.915Z,99215.75
2023-03-12T23:16:20.621Z,99201.38
2023-03-12T23:18:49.566Z,99182.31
2023-03-12T23:21:19.667Z,99176.63
2023-03-12T23:23:48.452Z,99085.03
2023-03-12T23:26:19.877Z,99130.00
2023-03-12T23:28:48.341Z,99139.19
2023-03-12T23:31:17.381Z,99137.19
2023-03-12T23:33:46.117Z,99130.16
2023-03-12T23:36:16.244Z,99112.59
2023-03-12T23:38:45.184Z,99108.75
2023-03-12T23:41:16.043Z,99110.44
2023-03-12T23:43:46.061Z,99108.75
2023-03-12T23:46:17.137Z,99102.06
2023-03-12T23:48:46.961Z,99102.59
2023-03-12T23:51:16.965Z,99091.03
2023-03-12T23:53:47.300Z,99085.69
2023-03-12T23:56:17.526Z,99067.97
2023-03-12T23:58:47.429Z,99065.94
